Time;durP1;ratioP1;P1;durP2;ratioP2;P2;SDS_P1;SDS_P2;PMS_P1;PMS_P2;Temp;Humidity;BMP_temperature;BMP_pressure;BME280_temperature;BME280_humidity;BME280_pressure;Samples;Min_cycle;Max_cycle;Signal;HPM_P1;HPM_P2
2021/05/19 00:00:09;;;;;;;7.30;2.35;;;;;11.10;101080.00;;;;5106465;28;20925;-71
2021/05/19 00:02:36;;;;;;;9.98;2.47;;;;;10.80;101062.00;;;;5105012;28;20027;-70
2021/05/19 00:05:05;;;;;;;7.63;2.05;;;;;10.60;101087.00;;;;5105335;28;20020;-69
2021/05/19 00:07:31;;;;;;;6.38;2.25;;;;;10.40;101079.00;;;;5104552;28;20032;-72
2021/05/19 00:09:58;;;;;;;10.45;2.85;;;;;10.30;101087.00;;;;5105141;28;20447;-68
2021/05/19 00:12:24;;;;;;;8.60;2.83;;;;;10.20;101095.00;;;;5104046;28;20358;-69
2021/05/19 00:14:52;;;;;;;7.10;3.05;;;;;10.10;101095.00;;;;5103349;28;20042;-72
2021/05/19 00:17:19;;;;;;;9.65;2.28;;;;;10.00;101106.00;;;;5105703;28;20027;-71
2021/05/19 00:19:45;;;;;;;8.18;2.75;;;;;9.90;101096.00;;;;5105533;28;20561;-70
2021/05/19 00:22:12;;;;;;;5.22;2.78;;;;;9.90;101106.00;;;;5104192;28;20044;-72
2021/05/19 00:24:38;;;;;;;3.95;2.45;;;;;9.80;101088.00;;;;5086997;28;20105;-71
2021/05/19 00:27:05;;;;;;;11.13;3.10;;;;;9.70;101104.00;;;;5105518;28;20023;-72
2021/05/19 00:29:32;;;;;;;5.10;2.80;;;;;9.70;101100.00;;;;5105042;28;20118;-72
2021/05/19 00:31:59;;;;;;;9.38;3.20;;;;;9.70;101093.00;;;;5105726;28;20080;-69
2021/05/19 00:34:25;;;;;;;6.22;2.85;;;;;9.70;101095.00;;;;5105074;28;20031;-70
2021/05/19 00:36:52;;;;;;;9.07;2.80;;;;;9.70;101105.00;;;;5105302;28;20036;-70
2021/05/19 00:39:18;;;;;;;8.05;3.40;;;;;9.60;101103.00;;;;5104951;28;20127;-70
2021/05/19 00:41:45;;;;;;;10.48;3.42;;;;;9.60;101096.00;;;;5104623;28;20024;-74
2021/05/19 00:44:14;;;;;;;18.02;3.60;;;;;9.60;101087.00;;;;5105236;28;20052;-66
2021/05/19 00:46:46;;;;;;;12.70;3.50;;;;;9.50;101092.00;;;;5104690;28;20024;-69
2021/05/19 00:49:13;;;;;;;9.38;2.83;;;;;9.50;101091.00;;;;5105248;28;20031;-69
2021/05/19 00:51:40;;;;;;;12.23;3.20;;;;;9.50;101101.00;;;;5105365;28;20023;-70
2021/05/19 00:54:07;;;;;;;11.90;3.03;;;;;9.50;101089.00;;;;5104824;28;20526;-69
2021/05/19 00:56:34;;;;;;;10.70;3.47;;;;;9.40;101086.00;;;;5104612;28;20516;-68
2021/05/19 00:59:02;;;;;;;9.07;3.90;;;;;9.40;101089.00;;;;5104937;28;20027;-71
2021/05/19 01:01:35;;;;;;;17.02;4.03;;;;;9.40;101078.00;;;;5086879;28;20069;-68
2021/05/19 01:04:04;;;;;;;12.48;5.28;;;;;9.40;101078.00;;;;5104688;28;20023;-68
2021/05/19 01:06:57;;;;;;;9.95;4.47;;;;;9.40;101078.00;;;;5104269;28;20516;-73
2021/05/19 01:09:35;;;;;;;9.43;4.40;;;;;9.30;101064.00;;;;5103949;28;20067;-70
2021/05/19 01:12:11;;;;;;;12.82;4.30;;;;;9.30;101070.00;;;;5104780;28;20055;-68
2021/05/19 01:14:38;;;;;;;13.27;4.85;;;;;9.30;101069.00;;;;5106341;28;20028;-73
2021/05/19 01:17:06;;;;;;;8.48;5.25;;;;;9.20;101072.00;;;;5108684;28;20024;-74
2021/05/19 01:19:38;;;;;;;13.07;5.70;;;;;9.10;101064.00;;;;5108852;28;20027;-68
2021/05/19 01:22:10;;;;;;;;;;;;;9.10;101075.00;;;;5109744;28;20066;-66
2021/05/19 01:24:39;;;;;;;9.68;5.00;;;;;9.10;101053.00;;;;5108075;28;19922;-68
2021/05/19 01:27:07;;;;;;;10.32;5.00;;;;;9.10;101067.00;;;;5108665;28;20032;-70
2021/05/19 01:29:34;;;;;;;16.25;5.43;;;;;9.10;101064.00;;;;5109165;28;20038;-68
2021/05/19 01:32:01;;;;;;;13.52;5.55;;;;;9.10;101059.00;;;;5108447;28;20055;-69
2021/05/19 01:34:27;;;;;;;11.98;5.70;;;;;9.00;101064.00;;;;5109504;28;20082;-67
2021/05/19 01:36:54;;;;;;;9.95;4.65;;;;;8.90;101066.00;;;;5109106;28;20049;-71
2021/05/19 01:39:21;;;;;;;13.55;4.97;;;;;8.90;101067.00;;;;5108635;28;20705;-68
2021/05/19 01:41:49;;;;;;;20.63;4.93;;;;;8.90;101052.00;;;;5107708;28;20024;-70
2021/05/19 01:44:17;;;;;;;9.00;4.03;;;;;8.90;101060.00;;;;5107475;28;20498;-68
2021/05/19 01:46:45;;;;;;;7.47;3.85;;;;;8.80;101051.00;;;;5108014;28;20175;-71
2021/05/19 01:49:13;;;;;;;6.55;3.78;;;;;8.80;101066.00;;;;5108385;28;20498;-69
2021/05/19 01:51:41;;;;;;;9.75;3.47;;;;;8.90;101047.00;;;;5108301;28;20418;-70
2021/05/19 01:54:09;;;;;;;8.20;3.55;;;;;8.90;101055.00;;;;5107564;28;20062;-69
2021/05/19 01:56:38;;;;;;;16.77;3.50;;;;;8.80;101060.00;;;;5107890;28;20031;-73
2021/05/19 01:59:07;;;;;;;7.65;3.13;;;;;8.80;101051.00;;;;5107296;28;20031;-68
2021/05/19 02:01:34;;;;;;;10.60;4.55;;;;;8.70;101045.00;;;;5107414;28;20034;-68
2021/05/19 02:04:17;;;;;;;12.45;4.80;;;;;8.70;101045.00;;;;5107242;28;20405;-74
2021/05/19 02:06:46;;;;;;;14.60;5.63;;;;;8.70;101046.00;;;;5107648;28;20038;-68
2021/05/19 02:09:14;;;;;;;12.77;6.05;;;;;8.70;101046.00;;;;5107156;28;20141;-69
2021/05/19 02:11:41;;;;;;;12.55;5.22;;;;;8.70;101037.00;;;;5107792;28;20028;-71
2021/05/19 02:14:08;;;;;;;11.40;4.88;;;;;8.80;101047.00;;;;5107443;28;20513;-67
2021/05/19 02:16:34;;;;;;;13.70;4.95;;;;;8.80;101044.00;;;;5107928;28;20024;-68
2021/05/19 02:19:01;;;;;;;12.15;4.00;;;;;8.80;101042.00;;;;5107805;28;20057;-74
2021/05/19 02:21:28;;;;;;;11.65;3.85;;;;;8.70;101040.00;;;;5107125;28;20023;-71
2021/05/19 02:23:55;;;;;;;15.63;3.10;;;;;8.70;101033.00;;;;5107551;28;20032;-72
2021/05/19 02:26:21;;;;;;;8.07;3.00;;;;;8.80;101035.00;;;;5107084;28;20493;-71
2021/05/19 02:28:48;;;;;;;15.85;3.50;;;;;8.70;101013.00;;;;5106952;28;20059;-68
2021/05/19 02:31:15;;;;;;;8.50;3.30;;;;;8.60;101019.00;;;;5107372;28;20467;-70
2021/05/19 02:33:41;;;;;;;9.95;2.95;;;;;8.60;101013.00;;;;5106568;28;20036;-66
2021/05/19 02:36:08;;;;;;;7.28;2.95;;;;;8.60;101015.00;;;;5107512;28;20067;-70
2021/05/19 02:38:35;;;;;;;13.43;2.80;;;;;8.50;101001.00;;;;5106870;28;20690;-70
2021/05/19 02:41:03;;;;;;;7.57;2.63;;;;;8.50;101011.00;;;;5107753;28;20027;-66
2021/05/19 02:43:30;;;;;;;7.00;3.03;;;;;8.40;101003.00;;;;5107325;28;20036;-68
2021/05/19 02:45:57;;;;;;;11.02;3.40;;;;;8.30;100990.00;;;;5088723;28;20035;-72
2021/05/19 02:48:23;;;;;;;12.68;4.57;;;;;8.30;101004.00;;;;5106628;28;20032;-66
2021/05/19 02:50:50;;;;;;;13.15;5.78;;;;;8.30;100987.00;;;;5106866;28;20402;-73
2021/05/19 02:53:17;;;;;;;10.15;4.85;;;;;8.30;100998.00;;;;5107160;28;20048;-68
2021/05/19 02:55:44;;;;;;;10.52;4.85;;;;;8.30;100988.00;;;;5106494;28;20032;-68
2021/05/19 02:58:10;;;;;;;16.80;6.40;;;;;8.30;100993.00;;;;5106494;28;20044;-66
2021/05/19 03:00:37;;;;;;;18.77;5.00;;;;;8.30;100994.00;;;;5106222;28;20059;-70
2021/05/19 03:03:04;;;;;;;5.97;3.63;;;;;8.30;100991.00;;;;5106051;28;20031;-67
2021/05/19 03:05:31;;;;;;;8.73;3.55;;;;;8.40;100997.00;;;;5106394;28;20035;-71
2021/05/19 03:07:58;;;;;;;9.23;3.20;;;;;8.40;100992.00;;;;5106857;28;20026;-71
2021/05/19 03:10:24;;;;;;;8.48;3.80;;;;;8.30;100993.00;;;;5106298;28;20039;-71
2021/05/19 03:12:52;;;;;;;10.77;3.63;;;;;8.40;100977.00;;;;5106101;28;20118;-66
2021/05/19 03:15:20;;;;;;;8.35;3.20;;;;;8.40;100986.00;;;;5105831;28;20092;-71
2021/05/19 03:17:47;;;;;;;9.45;3.63;;;;;8.40;100985.00;;;;5106825;28;20032;-66
2021/05/19 03:20:14;;;;;;;5.18;3.10;;;;;8.30;100979.00;;;;5105990;28;20060;-69
2021/05/19 03:22:41;;;;;;;7.70;3.25;;;;;8.20;100976.00;;;;5107088;28;20032;-72
2021/05/19 03:25:08;;;;;;;7.03;3.10;;;;;8.20;100978.00;;;;5106600;28;20589;-70
2021/05/19 03:27:35;;;;;;;8.68;2.80;;;;;8.30;100981.00;;;;5088332;28;20028;-68
2021/05/19 03:30:06;;;;;;;12.20;3.38;;;;;8.30;100964.00;;;;5106811;28;20089;-67
2021/05/19 03:32:33;;;;;;;8.73;3.08;;;;;8.30;100961.00;;;;5106511;28;20081;-67
2021/05/19 03:35:02;;;;;;;7.38;2.90;;;;;8.20;100966.00;;;;5106240;28;20818;-69
2021/05/19 03:37:30;;;;;;;9.82;3.85;;;;;8.20;100964.00;;;;5105348;28;20118;-67
2021/05/19 03:39:59;;;;;;;7.95;3.35;;;;;8.20;100965.00;;;;5105807;28;20039;-69
2021/05/19 03:42:26;;;;;;;8.57;3.22;;;;;8.20;100963.00;;;;5106052;28;20027;-71
2021/05/19 03:44:53;;;;;;;9.18;3.45;;;;;8.20;100963.00;;;;5106489;28;20035;-65
2021/05/19 03:47:19;;;;;;;15.80;3.50;;;;;8.20;100946.00;;;;5104950;28;20028;-68
2021/05/19 03:49:48;;;;;;;6.32;3.35;;;;;8.20;100969.00;;;;5105484;28;20116;-72
2021/05/19 03:52:16;;;;;;;7.50;2.90;;;;;8.10;100961.00;;;;5106296;28;20027;-66
2021/05/19 03:54:43;;;;;;;9.40;3.42;;;;;8.00;100978.00;;;;5106219;28;20031;-69
2021/05/19 03:57:10;;;;;;;7.10;3.60;;;;;8.00;100984.00;;;;5105645;28;20141;-68
2021/05/19 03:59:37;;;;;;;8.15;3.38;;;;;8.00;100988.00;;;;5104695;28;20028;-69
2021/05/19 04:02:04;;;;;;;12.80;3.63;;;;;8.00;100998.00;;;;5105373;28;20148;-70
2021/05/19 04:04:31;;;;;;;4.70;2.38;;;;;8.00;100988.00;;;;5106122;28;20702;-68
2021/05/19 04:06:58;;;;;;;11.27;2.90;;;;;8.10;100991.00;;;;5105294;28;20217;-69
2021/05/19 04:09:26;;;;;;;14.35;3.80;;;;;8.10;101004.00;;;;5104729;28;20028;-70
2021/05/19 04:11:52;;;;;;;7.40;3.33;;;;;8.00;101003.00;;;;5104914;28;20023;-70
2021/05/19 04:14:19;;;;;;;5.18;3.10;;;;;8.00;100992.00;;;;5105134;28;20096;-70
2021/05/19 04:16:45;;;;;;;7.30;3.53;;;;;8.00;100989.00;;;;5105207;28;20027;-70
2021/05/19 04:19:12;;;;;;;7.25;2.78;;;;;8.10;100986.00;;;;5105486;28;20115;-68
2021/05/19 04:21:39;;;;;;;4.43;2.53;;;;;8.10;100984.00;;;;5105487;28;20680;-72
2021/05/19 04:24:06;;;;;;;7.13;2.78;;;;;8.10;100984.00;;;;5105409;28;20494;-72
2021/05/19 04:26:32;;;;;;;8.93;2.38;;;;;8.10;100977.00;;;;5104812;28;20059;-74
2021/05/19 04:28:59;;;;;;;3.33;2.13;;;;;7.80;100978.00;;;;5086922;28;20447;-66
2021/05/19 04:31:25;;;;;;;6.43;2.75;;;;;7.70;100973.00;;;;5105638;28;20537;-71
2021/05/19 04:33:52;;;;;;;7.15;2.42;;;;;7.60;100973.00;;;;5104902;28;20031;-70
2021/05/19 04:36:19;;;;;;;4.72;2.67;;;;;7.60;100973.00;;;;5105068;28;20027;-70
2021/05/19 04:38:46;;;;;;;6.82;2.30;;;;;7.70;100972.00;;;;5104763;28;20028;-69
2021/05/19 04:41:12;;;;;;;13.88;2.70;;;;;7.70;100965.00;;;;5105413;28;20041;-66
2021/05/19 04:43:43;;;;;;;7.32;2.70;;;;;7.50;100973.00;;;;5105026;28;20043;-70
2021/05/19 04:46:10;;;;;;;5.03;2.55;;;;;7.40;100971.00;;;;5104484;28;20031;-68
2021/05/19 04:48:36;;;;;;;10.57;2.80;;;;;7.40;100965.00;;;;5103749;28;20451;-74
2021/05/19 04:51:04;;;;;;;6.55;2.90;;;;;7.50;100960.00;;;;5104499;28;20035;-69
2021/05/19 04:53:30;;;;;;;7.95;2.70;;;;;7.50;100968.00;;;;5103845;28;20068;-71
2021/05/19 04:55:57;;;;;;;6.28;2.80;;;;;7.40;100977.00;;;;5105024;28;20065;-70
2021/05/19 04:58:26;;;;;;;12.98;3.00;;;;;7.30;100975.00;;;;5105583;28;20028;-71
2021/05/19 05:00:54;;;;;;;6.50;2.30;;;;;7.30;100974.00;;;;5105047;28;20505;-70
2021/05/19 05:03:20;;;;;;;5.43;2.83;;;;;7.30;100962.00;;;;5105612;28;20599;-68
2021/05/19 05:05:50;;;;;;;8.88;2.70;;;;;7.20;100972.00;;;;5104535;28;20065;-70
2021/05/19 05:08:18;;;;;;;6.57;2.33;;;;;7.10;100963.00;;;;5104930;28;20395;-66
2021/05/19 05:10:44;;;;;;;8.90;2.78;;;;;7.00;100972.00;;;;5104477;28;20019;-70
2021/05/19 05:13:11;;;;;;;5.28;2.80;;;;;7.00;100954.00;;;;5104643;28;20038;-70
2021/05/19 05:15:37;;;;;;;7.68;3.20;;;;;6.90;100953.00;;;;5104645;28;20027;-69
2021/05/19 05:18:04;;;;;;;16.50;3.58;;;;;6.90;100961.00;;;;5104245;28;20401;-69
2021/05/19 05:20:31;;;;;;;10.23;3.30;;;;;6.90;100959.00;;;;5104836;28;20114;-67
2021/05/19 05:22:58;;;;;;;12.50;3.47;;;;;6.90;100949.00;;;;5104247;28;20040;-68
2021/05/19 05:25:25;;;;;;;11.43;3.80;;;;;6.90;100931.00;;;;5104412;28;20402;-69
2021/05/19 05:27:51;;;;;;;11.25;3.60;;;;;6.80;100943.00;;;;5104600;28;20061;-67
2021/05/19 05:30:18;;;;;;;9.40;3.40;;;;;6.80;100934.00;;;;5104771;28;20055;-67
2021/05/19 05:32:45;;;;;;;9.07;2.78;;;;;6.80;100922.00;;;;5085755;28;20040;-68
2021/05/19 05:35:12;;;;;;;6.30;3.15;;;;;6.80;100929.00;;;;5104241;28;20133;-67
2021/05/19 05:37:38;;;;;;;6.25;2.67;;;;;6.80;100920.00;;;;5104490;28;20037;-67
2021/05/19 05:40:06;;;;;;;5.78;3.20;;;;;6.80;100928.00;;;;5104611;28;20037;-68
2021/05/19 05:42:34;;;;;;;7.13;3.25;;;;;6.70;100945.00;;;;5105162;28;20023;-71
2021/05/19 05:45:01;;;;;;;9.95;3.08;;;;;6.60;100940.00;;;;5104594;28;20046;-67
2021/05/19 05:47:28;;;;;;;13.75;3.10;;;;;6.60;100925.00;;;;5105198;28;20055;-72
2021/05/19 05:49:57;;;;;;;6.38;3.40;;;;;6.60;100937.00;;;;5104846;28;20478;-69
2021/05/19 05:52:24;;;;;;;8.13;3.50;;;;;6.60;100944.00;;;;5104411;28;20052;-72
2021/05/19 05:54:51;;;;;;;8.68;3.45;;;;;6.70;100948.00;;;;5103831;28;20451;-68
2021/05/19 05:57:17;;;;;;;17.40;3.80;;;;;6.70;100955.00;;;;5104418;28;20098;-67
2021/05/19 05:59:44;;;;;;;10.55;4.13;;;;;6.90;100950.00;;;;5103648;28;20038;-68
2021/05/19 06:02:11;;;;;;;9.60;4.18;;;;;7.00;100950.00;;;;5107551;28;20100;-71
2021/05/19 06:04:37;;;;;;;15.38;6.05;;;;;7.20;100955.00;;;;5107977;28;20130;-65
2021/05/19 06:07:04;;;;;;;23.42;6.97;;;;;7.30;100952.00;;;;5106766;28;20156;-66
2021/05/19 06:09:31;;;;;;;17.23;7.60;;;;;7.40;100957.00;;;;5107117;28;20023;-66
2021/05/19 06:11:57;;;;;;;16.23;8.57;;;;;7.50;100942.00;;;;5107659;28;20498;-69
2021/05/19 06:14:24;;;;;;;140.68;11.65;;;;;7.40;100941.00;;;;5107350;28;20391;-68
2021/05/19 06:16:51;;;;;;;152.25;11.57;;;;;7.40;100926.00;;;;5106871;28;20034;-70
2021/05/19 06:19:17;;;;;;;33.13;9.20;;;;;7.30;100913.00;;;;5107187;28;20593;-69
2021/05/19 06:21:44;;;;;;;19.50;9.13;;;;;7.20;100921.00;;;;5108349;28;20100;-67
2021/05/19 06:24:10;;;;;;;16.25;8.07;;;;;7.20;100918.00;;;;5107861;28;20516;-70
2021/05/19 06:26:38;;;;;;;28.98;7.28;;;;;7.00;100928.00;;;;5107628;28;20020;-68
2021/05/19 06:29:05;;;;;;;10.40;7.05;;;;;6.90;100910.00;;;;5107775;28;20027;-69
2021/05/19 06:31:32;;;;;;;8.85;6.30;;;;;6.80;100933.00;;;;5107440;28;20023;-68
2021/05/19 06:33:58;;;;;;;12.02;8.05;;;;;6.80;100927.00;;;;5107916;28;20034;-71
2021/05/19 06:36:25;;;;;;;11.77;7.93;;;;;6.70;100901.00;;;;5107328;28;20068;-71
2021/05/19 06:38:51;;;;;;;20.75;8.73;;;;;6.70;100901.00;;;;5108501;28;20731;-67
2021/05/19 06:41:18;;;;;;;13.40;6.90;;;;;6.60;100902.00;;;;5107196;28;20042;-67
2021/05/19 06:43:44;;;;;;;20.05;7.50;;;;;6.60;100895.00;;;;5108252;28;20106;-68
2021/05/19 06:46:11;;;;;;;25.90;7.72;;;;;6.60;100887.00;;;;5106680;28;20074;-68
2021/05/19 06:48:37;;;;;;;11.00;6.82;;;;;6.50;100895.00;;;;5106382;28;20035;-68
2021/05/19 06:51:05;;;;;;;15.50;7.05;;;;;6.30;100891.00;;;;5107514;28;20105;-69
2021/05/19 06:53:31;;;;;;;43.15;8.30;;;;;6.30;100901.00;;;;5107729;28;20064;-68
2021/05/19 06:55:59;;;;;;;24.73;9.90;;;;;6.20;100905.00;;;;5106923;28;20024;-66
2021/05/19 06:58:26;;;;;;;10.85;7.90;;;;;6.30;100891.00;;;;5107500;28;20035;-66
2021/05/19 07:00:53;;;;;;;10.82;8.48;;;;;6.30;100890.00;;;;5107072;28;20043;-70
2021/05/19 07:03:20;;;;;;;12.00;8.43;;;;;6.20;100887.00;;;;5106902;28;20088;-67
2021/05/19 07:05:46;;;;;;;12.18;9.30;;;;;6.10;100883.00;;;;5107195;28;20058;-69
2021/05/19 07:08:13;;;;;;;11.63;8.88;;;;;6.20;100880.00;;;;5107404;28;20420;-67
2021/05/19 07:10:40;;;;;;;13.10;6.60;;;;;6.10;100885.00;;;;5106340;28;20063;-65
2021/05/19 07:13:06;;;;;;;15.68;9.38;;;;;6.10;100878.00;;;;5106576;28;20096;-66
2021/05/19 07:15:37;;;;;;;7.40;5.18;;;;;6.00;100863.00;;;;5107454;28;20431;-67
2021/05/19 07:18:15;;;;;;;6.05;4.60;;;;;5.90;100882.00;;;;5107585;28;20059;-71
2021/05/19 07:20:42;;;;;;;4.90;4.13;;;;;5.90;100857.00;;;;5106660;28;20066;-69
2021/05/19 07:23:09;;;;;;;4.90;3.88;;;;;6.00;100858.00;;;;5106787;28;20114;-71
2021/05/19 07:25:36;;;;;;;5.07;4.28;;;;;5.90;100875.00;;;;5106455;28;20040;-68
2021/05/19 07:28:04;;;;;;;5.93;4.25;;;;;5.90;100875.00;;;;5106189;28;20024;-69
2021/05/19 07:30:31;;;;;;;418.25;16.75;;;;;6.00;100873.00;;;;5106951;28;20077;-68
2021/05/19 07:32:58;;;;;;;9.68;5.50;;;;;6.00;100852.00;;;;5106364;28;20035;-69
2021/05/19 07:35:26;;;;;;;17.40;6.25;;;;;6.00;100857.00;;;;5106067;28;20107;-64
2021/05/19 07:37:53;;;;;;;6.25;4.70;;;;;5.90;100851.00;;;;5106386;28;20051;-66
2021/05/19 07:40:21;;;;;;;6.15;4.32;;;;;5.90;100860.00;;;;5106459;28;20031;-70
2021/05/19 07:42:48;;;;;;;6.75;4.90;;;;;5.80;100868.00;;;;5106392;28;20069;-65
2021/05/19 07:45:15;;;;;;;5.07;4.47;;;;;5.70;100858.00;;;;5106032;28;20030;-72
2021/05/19 07:47:42;;;;;;;5.90;4.70;;;;;5.70;100848.00;;;;5106443;28;20601;-68
2021/05/19 07:50:09;;;;;;;31.90;7.00;;;;;5.70;100853.00;;;;5106323;28;20490;-70
2021/05/19 07:52:36;;;;;;;45.95;6.72;;;;;5.70;100858.00;;;;5105776;28;20495;-70
2021/05/19 07:55:06;;;;;;;44.53;7.10;;;;;5.70;100848.00;;;;5105871;28;20027;-72
2021/05/19 07:57:50;;;;;;;21.77;6.95;;;;;5.70;100848.00;;;;5105412;28;20026;-67
2021/05/19 08:00:25;;;;;;;8.60;6.00;;;;;5.60;100851.00;;;;5105751;28;20038;-71
2021/05/19 08:02:52;;;;;;;7.43;6.00;;;;;5.60;100849.00;;;;5104841;28;20520;-67
2021/05/19 08:05:19;;;;;;;8.23;6.28;;;;;5.70;100844.00;;;;5105405;28;20028;-66
2021/05/19 08:07:45;;;;;;;33.65;7.03;;;;;5.80;100854.00;;;;5105713;28;20682;-67
2021/05/19 08:10:12;;;;;;;47.50;6.65;;;;;5.80;100859.00;;;;5106238;28;20501;-69
2021/05/19 08:12:39;;;;;;;45.60;7.90;;;;;5.90;100865.00;;;;5105582;28;20019;-70
2021/05/19 08:15:07;;;;;;;128.98;7.93;;;;;5.90;100867.00;;;;5105872;28;20023;-67
2021/05/19 08:17:33;;;;;;;172.52;10.15;;;;;5.90;100866.00;;;;5104671;28;20550;-70
2021/05/19 08:20:00;;;;;;;24.80;5.20;;;;;5.90;100871.00;;;;5104971;28;20038;-67
2021/05/19 08:22:27;;;;;;;21.63;5.43;;;;;5.80;100857.00;;;;5104556;28;20031;-66
2021/05/19 08:24:53;;;;;;;6.85;5.20;;;;;5.80;100872.00;;;;5104388;28;20038;-69
2021/05/19 08:27:20;;;;;;;8.27;5.13;;;;;5.70;100875.00;;;;5105855;28;20160;-69
2021/05/19 08:29:47;;;;;;;5.57;4.80;;;;;5.60;100870.00;;;;5106158;28;20023;-64
2021/05/19 08:32:14;;;;;;;7.18;4.88;;;;;5.60;100885.00;;;;5104726;28;20030;-66
2021/05/19 08:34:41;;;;;;;6.75;5.10;;;;;5.50;100887.00;;;;5104682;28;20040;-67
2021/05/19 08:37:07;;;;;;;6.55;4.95;;;;;5.70;100893.00;;;;5105176;28;20028;-73
2021/05/19 08:39:34;;;;;;;5.55;4.97;;;;;5.70;100881.00;;;;5105056;28;20106;-70
2021/05/19 08:42:01;;;;;;;10.60;5.35;;;;;5.70;100886.00;;;;5103800;28;20024;-65
2021/05/19 08:44:28;;;;;;;14.65;5.85;;;;;5.80;100895.00;;;;5104325;28;20035;-68
2021/05/19 08:46:58;;;;;;;9.32;5.43;;;;;5.70;100893.00;;;;5104221;28;20038;-68
2021/05/19 08:49:27;;;;;;;8.52;4.60;;;;;5.60;100904.00;;;;5104357;28;20027;-72
2021/05/19 08:51:55;;;;;;;8.73;4.68;;;;;5.60;100914.00;;;;5105313;28;20107;-72
2021/05/19 08:54:23;;;;;;;10.20;4.50;;;;;5.50;100911.00;;;;5085621;28;20047;-68
2021/05/19 08:56:52;;;;;;;10.65;4.50;;;;;5.50;100910.00;;;;5104987;28;20078;-67
2021/05/19 08:59:19;;;;;;;5.88;4.35;;;;;5.50;100914.00;;;;5104766;28;20115;-67
2021/05/19 09:01:48;;;;;;;100.03;7.28;;;;;5.50;100907.00;;;;5104759;28;20110;-67
2021/05/19 09:04:22;;;;;;;7.05;4.60;;;;;5.50;100915.00;;;;5103707;28;20478;-66
2021/05/19 09:06:58;;;;;;;5.22;4.50;;;;;5.50;100914.00;;;;5105148;28;20046;-66
2021/05/19 09:09:34;;;;;;;7.05;4.40;;;;;5.50;100931.00;;;;5104457;28;20147;-71
2021/05/19 09:12:08;;;;;;;6.15;3.88;;;;;5.40;100928.00;;;;5105043;28;20114;-70
2021/05/19 09:14:41;;;;;;;12.57;3.97;;;;;5.30;100915.00;;;;5104737;28;20095;-69
2021/05/19 09:17:17;;;;;;;4.47;3.63;;;;;5.30;100928.00;;;;5104997;28;20513;-69
2021/05/19 09:19:44;;;;;;;4.38;3.90;;;;;5.20;100919.00;;;;5103944;28;20032;-67
2021/05/19 09:22:25;;;;;;;3.55;3.25;;;;;5.20;100908.00;;;;5104324;28;20031;-70
2021/05/19 09:24:53;;;;;;;6.53;3.97;;;;;5.20;100911.00;;;;5103591;28;20031;-68
2021/05/19 09:27:20;;;;;;;4.70;4.00;;;;;5.10;100913.00;;;;5103446;28;20031;-71
2021/05/19 09:29:52;;;;;;;10.40;5.75;;;;;5.10;100913.00;;;;5104025;28;20154;-68
2021/05/19 09:32:20;;;;;;;14.88;5.85;;;;;5.10;100915.00;;;;5103118;28;20039;-67
2021/05/19 09:34:51;;;;;;;183.50;12.45;;;;;5.10;100924.00;;;;5104274;28;20028;-67
2021/05/19 09:37:20;;;;;;;249.15;13.40;;;;;5.20;100909.00;;;;5107400;28;20110;-67
2021/05/19 09:39:57;;;;;;;232.95;11.65;;;;;5.10;100912.00;;;;5108072;28;20036;-72
2021/05/19 09:42:41;;;;;;;72.57;7.78;;;;;5.20;100923.00;;;;5107710;28;20076;-69
2021/05/19 09:45:26;;;;;;;38.22;6.47;;;;;5.20;100921.00;;;;5107303;28;20066;-71
2021/05/19 09:47:55;;;;;;;22.13;5.82;;;;;5.20;100925.00;;;;5107345;28;20020;-70
2021/05/19 09:50:43;;;;;;;33.55;6.00;;;;;5.20;100931.00;;;;5108038;28;20031;-67
2021/05/19 09:53:18;;;;;;;8.30;5.25;;;;;5.20;100942.00;;;;5106677;28;20043;-65
2021/05/19 09:55:51;;;;;;;12.80;5.85;;;;;5.20;100931.00;;;;5106914;28;20814;-69
2021/05/19 09:58:40;;;;;;;21.55;6.95;;;;;5.20;100944.00;;;;5107595;28;20039;-70
2021/05/19 10:01:08;;;;;;;18.35;6.47;;;;;5.20;100949.00;;;;5108220;28;20028;-71
2021/05/19 10:03:37;;;;;;;10.98;6.88;;;;;5.10;100957.00;;;;5107207;28;20024;-67
2021/05/19 10:08:36;;;;;;;41.55;7.38;;;;;5.20;100946.00;;;;5106591;28;20463;-65
2021/05/19 10:11:05;;;;;;;41.08;8.32;;;;;5.20;100946.00;;;;5106962;28;20055;-68
2021/05/19 10:13:33;;;;;;;64.45;10.07;;;;;5.20;100926.00;;;;5106040;28;20031;-73
2021/05/19 10:16:02;;;;;;;35.55;11.50;;;;;5.20;100935.00;;;;5107164;28;20102;-65
2021/05/19 10:18:46;;;;;;;43.13;10.50;;;;;5.20;100946.00;;;;5106400;28;20034;-69
2021/05/19 10:21:15;;;;;;;33.75;4.70;;;;;5.30;100938.00;;;;5106673;28;20024;-67
2021/05/19 10:24:05;;;;;;;15.82;4.00;;;;;5.40;100943.00;;;;5107316;28;20028;-65
2021/05/19 10:26:52;;;;;;;26.65;3.95;;;;;5.40;100952.00;;;;5107117;28;20071;-66
2021/05/19 10:29:49;;;;;;;8.85;2.70;;;;;5.60;100944.00;;;;5105992;28;20035;-67
2021/05/19 10:32:22;;;;;;;14.45;3.50;;;;;5.60;100946.00;;;;5085860;28;20051;-70
2021/05/19 10:34:50;;;;;;;14.02;3.80;;;;;5.70;100951.00;;;;5106648;28;20031;-68
2021/05/19 10:37:35;;;;;;;10.52;3.65;;;;;5.80;100947.00;;;;5106276;28;20035;-70
2021/05/19 10:40:27;;;;;;;8.75;2.95;;;;;6.00;100960.00;;;;5106150;28;20632;-69
2021/05/19 10:42:57;;;;;;;4.57;3.22;;;;;6.10;100941.00;;;;5093176;28;20039;-67
2021/05/19 10:45:23;;;;;;;15.27;6.60;;;;;6.30;100948.00;;;;5106283;28;20031;-71
2021/05/19 10:47:50;;;;;;;24.02;4.95;;;;;7.30;100875.00;;;;5106004;28;20027;-67
2021/05/19 10:58:30;;;;;;;18.35;3.50;;;;;9.70;100882.00;;;;5105965;28;20050;-71
2021/05/19 11:00:57;;;;;;;25.70;4.90;;;;;9.30;100897.00;;;;5105642;28;20035;-70
2021/05/19 11:03:23;;;;;;;26.15;6.25;;;;;8.80;100901.00;;;;5105435;28;20516;-69
2021/05/19 11:05:53;;;;;;;23.95;4.88;;;;;9.00;100897.00;;;;5106545;28;20036;-67
2021/05/19 11:08:29;;;;;;;20.55;4.50;;;;;9.20;100908.00;;;;5106411;28;20023;-68
2021/05/19 11:11:21;;;;;;;6.00;3.42;;;;;9.70;100873.00;;;;5105830;28;20035;-68
2021/05/19 11:14:45;;;;;;;5.88;3.65;;;;;10.70;100867.00;;;;5106210;28;20028;-68
2021/05/19 11:17:25;;;;;;;9.45;3.30;;;;;10.60;100880.00;;;;5104284;28;21106;-66
2021/05/19 11:19:46;;;;;;;11.63;3.75;;;;;10.30;100919.00;;;;5104871;28;20062;-67
2021/05/19 11:22:15;;;;;;;8.07;3.15;;;;;9.80;100941.00;;;;5106247;28;20038;-67
2021/05/19 11:24:57;;;;;;;8.75;3.60;;;;;10.20;100931.00;;;;5106215;28;20958;-71
2021/05/19 11:27:28;;;;;;;16.52;3.30;;;;;11.40;100886.00;;;;5105885;28;20023;-67
2021/05/19 11:29:56;;;;;;;16.65;5.35;;;;;13.60;100807.00;;;;5105495;28;20028;-72
2021/05/19 11:32:25;;;;;;;11.48;3.35;;;;;13.50;100871.00;;;;5106034;28;20035;-65
2021/05/19 11:34:52;;;;;;;10.38;4.00;;;;;13.00;100899.00;;;;5105657;28;20067;-71
2021/05/19 11:37:20;;;;;;;19.48;4.78;;;;;13.00;100909.00;;;;5088196;28;20031;-65
2021/05/19 11:39:53;;;;;;;18.73;3.95;;;;;13.70;100885.00;;;;5106550;28;20067;-70
2021/05/19 11:42:24;;;;;;;15.00;4.30;;;;;13.60;100880.00;;;;5105780;28;20038;-69
2021/05/19 11:44:56;;;;;;;7.82;3.55;;;;;13.70;100908.00;;;;5105773;28;20494;-70
2021/05/19 11:47:24;;;;;;;20.25;5.50;;;;;13.70;100901.00;;;;5105936;28;20393;-69
2021/05/19 11:50:16;;;;;;;21.48;5.15;;;;;15.10;100864.00;;;;5105751;28;20645;-72
2021/05/19 11:53:00;;;;;;;11.40;3.55;;;;;16.40;100860.00;;;;5104710;28;20885;-68
2021/05/19 11:55:31;;;;;;;15.95;6.68;;;;;16.60;100830.00;;;;5105982;28;20054;-67
2021/05/19 11:58:14;;;;;;;7.43;2.22;;;;;17.50;100804.00;;;;5105552;28;20034;-70
2021/05/19 12:00:47;;;;;;;8.25;2.50;;;;;17.10;100844.00;;;;5105734;28;20123;-70
2021/05/19 12:03:15;;;;;;;3.78;2.40;;;;;16.60;100843.00;;;;5105489;28;20055;-68
2021/05/19 12:05:44;;;;;;;14.25;3.75;;;;;17.10;100833.00;;;;5105828;28;20056;-67
2021/05/19 12:08:13;;;;;;;9.73;3.05;;;;;17.50;100848.00;;;;5104917;28;20140;-71
2021/05/19 12:10:41;;;;;;;12.32;3.10;;;;;17.50;100874.00;;;;5105189;28;20039;-70
2021/05/19 12:13:09;;;;;;;7.70;3.70;;;;;17.70;100870.00;;;;5105994;28;20036;-70
2021/05/19 12:15:37;;;;;;;17.42;3.13;;;;;17.90;100871.00;;;;5104600;28;20038;-67
2021/05/19 12:18:06;;;;;;;9.32;3.30;;;;;17.70;100852.00;;;;5105416;28;20379;-71
2021/05/19 12:20:34;;;;;;;19.15;4.80;;;;;18.40;100849.00;;;;5105051;28;20050;-68
2021/05/19 12:23:03;;;;;;;8.18;2.97;;;;;18.20;100860.00;;;;5104918;28;20036;-70
2021/05/19 12:25:32;;;;;;;9.75;3.63;;;;;17.70;100877.00;;;;5105622;28;20032;-69
2021/05/19 12:28:09;;;;;;;6.72;3.20;;;;;17.30;100916.00;;;;5086659;28;20035;-70
2021/05/19 12:30:50;;;;;;;13.02;4.85;;;;;16.20;100949.00;;;;5104525;28;20028;-69